x

9410840 - Santa Monica Pier (icac1) Weather Station

8:54 - Wed 25th May 2016 All times are PDT. -7 hours from GMT.

  • Wind
    14mph, 15mph gusts
  • Sea Temp 64°f
  • Luft Temp 60°f
  • Sea Pressure 1018.2mb
  • 9410840 - Santa Monica Pier
  • 9410840 - Santa Monica Pier

More Historic Weather Station data

Upgrade to MSW Pro to gain access to the past 30 days of data for over 8000 Wavebouys and Weather Stations around the globe.

Join Pro

Comparision Forecast

View Surf forecast
   
Mi 05/25 8:54 14 15 mph 1018.2mb 64f 60f
8:48 14 15 mph 1018.2mb 64f 60f
8:42  -  mph 1018.2mb 64f 60f
8:30 13 14 mph 1018.1mb 64f 60f
8:24 14 15 mph 1018.1mb 64f 59f
8:18 16 18 mph 1018.1mb 64f 59f
8:12  -  mph 1018.2mb 64f 60f
8:06  -  mph 1018.2mb 65f 60f
8:00  -  mph - 65f 60f
7:54  -  mph - 65f 60f
7:48  -  mph - 65f 61f
7:42  -  mph - 65f 61f
7:36  -  mph - 65f 61f
7:30  -  mph - 65f 61f
7:24 17 21 mph 1018.2mb 65f -
7:18 16 20 mph 1018.2mb 65f -
7:12  -  mph 1018.2mb 65f 61f
7:06  -  mph 1018.2mb 65f 60f
7:00 16 17 mph 1018.3mb 65f -
6:54 14 16 mph 1018.2mb 65f -
6:48 15 17 mph 1018.2mb 65f -
6:42  -  mph 1018.1mb 65f 60f
6:36  -  mph 1018.1mb 65f 61f
6:30 14 15 mph 1018.1mb 65f -
6:24 14 15 mph 1018.1mb 65f -
6:18 14 15 mph 1018.2mb 65f -
6:12 11 14 mph 1018.1mb 65f -
6:06 13 14 mph 1018.1mb 65f -
6:00  -  mph 1018.2mb 64f -
5:54  -  mph 1018.3mb 64f -
5:48  -  mph 1018.2mb 64f -
5:42  -  mph 1018.3mb 64f -
5:36  -  mph 1018.3mb 65f -
5:30 13 14 mph 1018.3mb 64f -
5:24 13 14 mph 1018.4mb 64f -
5:18 13 14 mph 1018.4mb 64f -
5:12  -  mph 1018.4mb 64f 61f
5:06  -  mph 1018.3mb 64f 61f
5:00 15 16 mph 1018.4mb 64f -
4:54 16 17 mph 1018.3mb 64f -
4:48 16 18 mph - 64f -
4:42 16 18 mph - 64f -
4:36 16 17 mph - 64f -
4:30 15 16 mph 1018.5mb 64f -
4:24 14 16 mph 1018.4mb 63f -
4:18 15 16 mph 1018.5mb 64f -
4:12  -  mph 1018.6mb 64f 61f
4:06  -  mph 1018.6mb 63f 61f
4:00  -  mph 1018.7mb 64f -
3:54  -  mph 1018.7mb 64f -
3:48  -  mph 1018.8mb 64f -
3:42 11 13 mph 1018.8mb - 61f
3:36 11 13 mph 1018.8mb - 60f
3:30 11 13 mph 1018.8mb - 60f
3:24 10 13 mph 1018.8mb - 60f
3:18 10 11 mph 1018.9mb - 60f
3:12 10 11 mph 1019mb 63f 61f
3:06 8 11 mph 1019mb 63f 61f
3:00 9 10 mph 1019mb 62f -
2:54 9 10 mph 1019mb 62f -
2:48 9
mph
1019.1mb 62f -
2:42  -  mph 1019.1mb - -
2:36  -  mph 1019.2mb - -
2:30 10 11 mph 1019.2mb 63f 60f
2:24 9 14 mph 1019.2mb 63f 60f
2:18 10 13 mph 1019.2mb 63f 61f
2:12 10 11 mph 1019.3mb 63f 61f
2:06 9 11 mph 1019.4mb 63f 61f
2:00 10 13 mph 1019.4mb 64f 60f
1:54 10 11 mph 1019.4mb 64f 60f
1:48 10 11 mph 1019.4mb 64f 60f
1:42 10 11 mph 1019.4mb 64f 60f
1:36 10 11 mph 1019.3mb 64f 60f
1:30 10 13 mph 1019.4mb 64f 60f
1:24 11 13 mph 1019.4mb 64f 60f
1:18 9 11 mph 1019.5mb 64f 60f
1:12 8 11 mph 1019.5mb 64f 60f
1:06 8 11 mph 1019.6mb 64f 60f
1:00 9 11 mph 1019.6mb 64f 60f
12:54 9 11 mph 1019.5mb 64f 60f
12:48 10 11 mph 1019.5mb 64f 60f
12:42 9 10 mph 1019.5mb 64f 60f
12:36 9 10 mph 1019.6mb 64f 60f
12:30 9 10 mph 1019.6mb 64f 60f
12:24 10 11 mph 1019.7mb 64f 60f
12:18 9 11 mph 1019.7mb 64f 60f
12:12 10 11 mph 1019.8mb 64f 60f
12:06 10 13 mph 1019.7mb 64f 60f
12:00 9 11 mph 1019.7mb 64f 60f
11:54 10 13 mph 1019.7mb 64f 60f
11:48 9 11 mph 1019.7mb 64f 60f
11:42 10 11 mph 1019.7mb 64f 60f
11:36 9 11 mph 1019.7mb 64f 60f
11:30 9 10 mph 1019.8mb 64f 60f
11:24 8 10 mph 1019.7mb 64f 60f
11:18 8 10 mph 1019.7mb 64f 60f
11:12 8 10 mph 1019.6mb 64f 60f
11:06 8 9 mph 1019.6mb 64f 60f
11:00 9 10 mph - - -
10:54 8 9 mph 1019.5mb 64f 60f
10:48 10 11 mph 1019.5mb 64f 60f
10:42 9 11 mph 1019.4mb 64f 60f
10:36 7 8 mph 1019.4mb 64f 60f
10:30 7 8 mph 1019.4mb 64f 60f
10:24 7 9 mph 1019.3mb 64f 60f
10:18 7 9 mph 1019.2mb 64f 60f
10:12 8 10 mph 1019.3mb 64f 60f
10:06 8 9 mph 1019.3mb 64f 60f
10:00 8 9 mph 1019.3mb 64f 60f
9:54 7 9 mph 1019.3mb 64f 60f
9:48 7 9 mph 1019.2mb 64f 60f
9:42 7 8 mph 1019.2mb 64f 60f
9:36 7 9 mph 1019.2mb 64f 60f
9:30 7 8 mph 1019.1mb 64f 60f
9:24 7 9 mph 1019.1mb 64f 60f
9:18 7 8 mph 1019mb 64f 60f
9:12 6 8 mph 1018.9mb 64f 60f
9:06 6 7 mph 1018.9mb 64f 60f
9:00 3 5 mph 1018.8mb 63f 60f
8:54 3 6 mph 1018.8mb 63f 60f
8:48 3 5 mph 1018.8mb 63f 60f
8:36 3 5 mph 1018.7mb 63f 60f
8:30 3 5 mph 1018.6mb 63f 60f
8:12 3
mph
1018.5mb 63f 60f
8:06 3 5 mph 1018.5mb 63f 60f
8:00 3 5 mph 1018.5mb 63f 60f
7:48 3 5 mph 1018.4mb 63f 60f
7:42 3 6 mph 1018.4mb 63f 60f
7:36 5 6 mph 1018.3mb 63f 59f
7:30 5 7 mph 1018.2mb 63f 59f
7:24 5 7 mph 1018.3mb 63f 59f
7:18 6 7 mph 1018.2mb 63f 59f
7:12 5 6 mph 1018.1mb 63f 59f
7:06 2 6 mph 1018.1mb 63f 60f
6:48 6 9 mph 1018mb 63f 59f
6:42 6 7 mph 1017.9mb 63f 59f
6:30 5 7 mph 1017.8mb 63f 59f
6:18 3 6 mph 1017.8mb 63f 58f
6:12 3 5 mph 1017.8mb 63f 58f
6:00 3 6 mph 1017.7mb 63f 58f
5:54 1 2 mph 1017.6mb 63f 57f
5:48 2 3 mph 1017.6mb 63f 57f
5:42 2 3 mph 1017.5mb 62f 57f
5:36 2 5 mph 1017.5mb 62f 57f
5:30 3 6 mph 1017.4mb 62f 57f
5:24 5 6 mph 1017.4mb 62f 57f
5:18 6
mph
1017.4mb 62f 57f
5:12 6 8 mph 1017.4mb 62f 57f
5:06 7 8 mph 1017.2mb 62f 57f
5:00 6
mph
1017.2mb 62f 57f
4:54 2 3 mph 1017.2mb 62f 57f
4:48 3
mph
1017.1mb 61f 57f
4:42 3
mph
1017.2mb 61f 57f
4:36 3 5 mph 1017.3mb 61f 57f
4:30 5 6 mph 1017.3mb 61f 57f
4:24 3 5 mph 1017.3mb 61f 57f
4:18 3 5 mph 1017.4mb 61f 57f
4:12 1 3 mph 1017.4mb 61f 57f
4:06  -  3 mph 1017.3mb 61f 57f
4:00 3
mph
1017.3mb 62f 57f
3:54 2 3 mph 1017.4mb 62f 57f
3:48 2 3 mph 1017.4mb 62f 57f
3:42 2 3 mph 1017.3mb 62f 57f
3:36 3 5 mph 1017.3mb 62f 57f
3:30 5 6 mph 1017.2mb 62f 57f
3:24 6
mph
1017.2mb 62f 57f
3:18 6
mph
1017.3mb 62f 57f
3:12 6
mph
1017.3mb 62f 57f
3:06 5 6 mph 1017.4mb 62f 57f
3:00 5 6 mph 1017.4mb 62f 57f
2:54 6
mph
1017.4mb 62f 57f
2:48 5 6 mph 1017.4mb 62f 57f
2:42 5
mph
1017.4mb 62f 57f
2:36 3 5 mph 1017.4mb 62f 57f
2:30 3 5 mph 1017.2mb 62f 57f
2:24 5
mph
1017.3mb 63f 57f
2:18 5
mph
1017.3mb 63f 58f
2:12 3 5 mph 1017.4mb 64f 58f
2:06 2 3 mph 1017.4mb 64f 58f
2:00 1 3 mph 1017.4mb 64f 58f
1:54 2 3 mph 1017.4mb 64f 58f
1:48 3 6 mph 1017.5mb 64f 58f
1:42 3 5 mph 1017.6mb 64f 58f
1:36 3
mph
1017.6mb 64f 58f
1:30 2 3 mph 1017.7mb 64f 58f
1:24 3 5 mph 1017.7mb 64f 58f
1:18 5
mph
1017.8mb 64f 58f
1:12 3 5 mph 1017.8mb 63f 58f
1:06 2 5 mph 1017.8mb 64f 58f
1:00 2 5 mph 1017.8mb 63f 58f
12:54 3 5 mph 1017.8mb 64f 58f
12:48 3 5 mph 1017.8mb 64f 58f
12:42 3 5 mph 1017.8mb 64f 58f
12:36 3 6 mph 1017.8mb 64f 58f
12:30 5 6 mph 1017.8mb 64f 58f
12:24 5 7 mph 1017.8mb 64f 58f
12:12 5 7 mph 1017.8mb 64f 58f
12:06 6 7 mph 1017.8mb 64f 59f
12:00 5 7 mph 1017.8mb 64f 58f
Di 05/24 11:54 6 9 mph 1017.8mb 64f 59f
11:48 7 9 mph 1017.8mb 64f 59f
11:42 8 10 mph 1017.8mb 65f 59f
11:36 8 9 mph 1017.9mb 65f 59f
11:30 8 9 mph 1017.9mb 65f 59f
11:24 7 8 mph 1017.9mb 65f 59f
11:18 7 9 mph 1017.9mb 65f 59f
11:12 7 8 mph 1017.9mb 65f 59f
11:06 8 10 mph 1018mb 65f 59f
11:00 8 10 mph 1018mb 65f 59f
10:54 9 10 mph 1018mb 65f 59f
10:48 8 10 mph 1018.1mb 65f 60f
10:42 9 10 mph 1018.1mb 65f 60f
10:36 9 10 mph 1018mb 65f 59f
10:30 9 11 mph 1018mb 65f 59f
10:24 9 10 mph 1017.9mb 65f 60f
10:18 8 10 mph 1017.9mb 65f 60f
10:12 8 9 mph 1017.9mb 65f 60f
10:06 8 9 mph 1017.8mb 65f 60f
10:00 8 10 mph 1017.8mb 65f 60f
9:54 8 10 mph 1017.8mb 65f 60f
9:48 8 10 mph 1017.8mb 65f 60f
9:42 9 11 mph 1017.8mb 65f 60f
9:36 9 11 mph 1017.7mb 65f 60f
9:30 9 11 mph 1017.6mb 65f 60f
9:24 10 11 mph 1017.6mb 65f 60f
9:18 11 13 mph 1017.6mb 65f 60f
9:12 11 13 mph 1017.5mb 66f 60f
9:06 11 14 mph 1017.4mb 66f 60f
9:00 13 14 mph 1017.4mb 66f 60f
8:54 11 13 mph 1017.4mb 66f 60f
8:48  -  mph 1017.3mb 66f 60f
8:42  -  mph 1017.3mb 66f 60f
8:36  -  mph 1017.3mb 66f 60f
8:30 15 16 mph 1017.3mb 66f 60f
8:24 14 15 mph 1017.3mb 66f 60f
8:18 13 15 mph 1017.3mb 66f 60f
8:12  -  mph 1017.2mb 66f 60f
8:00 11 14 mph 1017mb 66f 60f
7:54 13 14 mph 1017mb 66f 60f
7:48 13 14 mph 1017mb 66f 60f
7:42 11 14 mph - - 60f
7:36 11 15 mph - - 60f
7:30 13 14 mph - 66f -
7:24 14 15 mph - 66f -
7:18 13 15 mph - 66f -
7:12  -  mph 1016.7mb 66f 60f
7:06  -  mph 1016.7mb 66f 60f
7:00  -  mph 1016.7mb 66f 60f
6:54  -  mph 1016.6mb 66f 60f
6:48  -  mph 1016.6mb 66f 60f
6:42  -  mph 1016.6mb - -
6:36  -  mph 1016.6mb - -
6:30 15 17 mph 1016.7mb 66f -
6:24 15 17 mph 1016.7mb 66f -
6:18 15 16 mph 1016.6mb 66f -
6:06  -  mph 1016.6mb 66f 60f
5:54  -  mph 1016.5mb 66f -
5:48  -  mph 1016.5mb 66f -
5:42  -  mph 1016.5mb - 60f
5:36  -  mph 1016.5mb - 60f
5:30 14 16 mph 1016.5mb - 60f
5:24 15 16 mph 1016.5mb - 60f
5:18 13 15 mph 1016.5mb - 60f
5:12  -  mph 1016.4mb 66f 60f
5:06  -  mph 1016.4mb 66f 60f
5:00  -  mph 1016.4mb - 60f
4:54  -  mph 1016.4mb - 60f
4:48  -  mph 1016.3mb - 60f
4:42 14 16 mph - 66f -
4:36 14 15 mph - 66f -
4:30  -  mph 1016.4mb 65f -
4:24  -  mph 1016.4mb 65f -
4:18  -  mph 1016.4mb 65f -
4:12  -  mph 1016.4mb 65f 60f
4:06  -  mph 1016.5mb 65f 60f
4:00  -  mph 1016.5mb 65f 60f
3:54  -  mph 1016.5mb 65f 60f
3:48  -  mph 1016.5mb 65f 60f
3:42  -  mph 1016.5mb 65f 60f
3:36  -  mph 1016.6mb 65f 60f
3:30  -  mph 1016.6mb 65f 61f
3:18 13 14 mph 1016.6mb 65f -
3:12 13 14 mph 1016.6mb 65f -
3:06 14 15 mph 1016.7mb 65f -
3:00  -  mph - - 60f
2:54  -  mph - - 60f
2:48  -  mph - - 60f
2:42  -  mph 1016.7mb 64f 60f
2:36  -  mph 1016.7mb 64f 60f
2:30 13 14 mph 1016.7mb 64f 60f
2:24 13 14 mph 1016.7mb 64f 60f
2:18 13 14 mph 1016.8mb 64f 60f
2:12 11 14 mph 1016.8mb 64f 61f
2:06 13 14 mph 1016.8mb 64f 60f
1:54 13 14 mph - 64f 60f
1:48 13 14 mph 1016.7mb 64f 60f
1:42 14
mph
1016.7mb 64f 60f
1:36 14
mph
1016.7mb 64f 60f
1:30 14 15 mph 1016.8mb 64f 60f
1:24 14 15 mph 1016.8mb 64f 60f
1:18 14 15 mph 1016.8mb 64f 60f
1:12 14 15 mph 1016.8mb 64f 60f
1:06 13 14 mph 1016.8mb 64f 60f
1:00 13 14 mph 1016.8mb 64f 60f
12:54 13 14 mph 1016.9mb 64f 60f
12:48 13 14 mph 1016.9mb 64f 60f
12:42 13 14 mph 1016.9mb 64f 61f
12:30 13 14 mph 1017mb 63f 60f
12:24 11 13 mph 1016.9mb 63f 60f
12:18 11 13 mph 1016.9mb 63f 60f
12:12 10 13 mph 1016.9mb 63f 60f
12:06 11 13 mph 1016.9mb 63f 60f
12:00 10 11 mph 1016.8mb 63f 60f
11:54 10 11 mph 1016.8mb 63f 60f
11:48 10 11 mph 1016.7mb 63f 60f
11:42 10 11 mph 1016.7mb 63f 60f
11:36 9 10 mph 1016.7mb 63f 60f
11:30 9 10 mph 1016.6mb 63f 60f
11:24 8 10 mph 1016.6mb 63f 60f
11:18 9 10 mph 1016.6mb 63f 60f
11:12 9 10 mph 1016.5mb 63f 60f
11:06 10
mph
1016.5mb 64f 60f
11:00 9 10 mph 1016.4mb 64f 60f
10:54 9 10 mph 1016.4mb 64f 60f
10:48 9 10 mph 1016.4mb 64f 60f
10:42 9 10 mph 1016.3mb 64f 60f
10:36 8 9 mph 1016.3mb 64f 60f
10:30 8 9 mph 1016.3mb 64f 60f
10:24 8 10 mph 1016.2mb 64f 60f
10:18 8 9 mph 1016.2mb 64f 60f
10:12 7 8 mph 1016.1mb 64f 60f
10:06 7 9 mph 1016mb 64f 60f
10:00 7 8 mph 1016mb 64f 60f
9:54 7 9 mph 1016mb 64f 60f
9:48 7 8 mph 1016mb 64f 60f
9:42 7 8 mph 1015.9mb 64f 60f
9:36 7 8 mph 1015.8mb 64f 60f
9:30 6 8 mph 1015.7mb 64f 60f
9:24 7
mph
1015.6mb 64f 60f
9:18 6 7 mph 1015.6mb 64f 60f
9:12 6
mph
1015.5mb 64f 60f
9:06 6
mph
1015.5mb 64f 60f
9:00 6
mph
1015.4mb 64f 60f
8:54 5 6 mph 1015.4mb 64f 61f
8:48 3 5 mph 1015.3mb 64f 61f
8:42 3
mph
1015.3mb 64f 60f
8:36 2 3 mph 1015.2mb 64f 61f
8:30 2 3 mph 1015.2mb 64f 61f
8:24 2 3 mph 1015.1mb 64f 60f
8:18 3 5 mph 1015mb 64f 60f
8:12 2 3 mph 1015mb 64f 60f
8:06 2
mph
1015mb 64f 61f
8:00 2 3 mph 1014.9mb 64f 61f
7:54 2
mph
1014.8mb 64f 61f
7:48 1 2 mph 1014.8mb 64f 61f
7:42 2 3 mph 1014.8mb 64f 61f
7:36 2 5 mph 1014.6mb 64f 61f
7:30 3 5 mph 1014.5mb 64f 61f
7:24 3 5 mph 1014.5mb 64f 61f
7:18 1 3 mph 1014.4mb 64f 61f
7:12 2 3 mph 1014.3mb 64f 61f
7:06 1 3 mph 1014.3mb 64f 61f
7:00 3 5 mph 1014.3mb 64f 61f
6:54 2 3 mph 1014.3mb 64f 61f
6:48 1 5 mph 1014.3mb 64f 60f
6:42 3 5 mph - 64f 60f
6:36 1 3 mph - 64f 60f
6:30 2 3 mph 1014.2mb 64f 60f
6:24 2 5 mph 1014.1mb 64f 59f
6:18 5 6 mph 1014mb 64f 59f
6:12 3 5 mph 1013.9mb 64f 59f
6:06 5 6 mph 1013.8mb 63f 59f
6:00 5 6 mph 1013.7mb 64f 59f
5:54 5 7 mph 1013.7mb 64f 59f
5:48 5
mph
1013.7mb 64f 59f
5:42 3 5 mph 1013.6mb 64f 59f
5:36 3 5 mph 1013.6mb 64f 59f
5:30 3 6 mph 1013.6mb 64f 59f
5:24 5 6 mph 1013.6mb 64f 59f
5:18 2 5 mph 1013.6mb 64f 59f
5:12 3 5 mph 1013.5mb 63f 59f
5:06 3
mph
1013.5mb 64f 59f
5:00 3 5 mph 1013.5mb 64f 59f
4:54 2
mph
1013.5mb 64f 58f
4:48 1
mph
1013.6mb 64f 58f
4:42 2
mph
1013.6mb 64f 59f
4:36 2
mph
1013.5mb 64f 58f
4:30  -  1 mph 1013.5mb 64f 58f
4:24 1
mph
1013.5mb 64f 58f
4:18 1 2 mph 1013.5mb 64f 59f
4:12 2
mph
1013.5mb 64f 58f
4:06 2
mph
1013.4mb 64f 59f
4:00 2
mph
1013.4mb 64f 58f
3:54 2 3 mph 1013.4mb 64f 58f
3:48 2
mph
1013.4mb 64f 59f
3:42 1 2 mph 1013.4mb 64f 58f
3:36  -  mph 1013.4mb 64f 58f
3:30  -  mph 1013.4mb 64f 58f
3:24  -  1 mph 1013.3mb 64f 58f
3:18  -  1 mph 1013.2mb 64f 58f
3:12 1 2 mph 1013.3mb 64f 58f
3:06  -  1 mph 1013.3mb 64f 58f
3:00  -  2 mph 1013.3mb 64f 59f
2:54 1 3 mph 1013.3mb 64f 59f
2:48 3
mph
1013.4mb 64f 59f
2:42 3 5 mph 1013.4mb 64f 59f
2:36 1 3 mph 1013.4mb 64f 59f
2:30 3 5 mph 1013.4mb 64f 59f
2:24 5 6 mph 1013.4mb 64f 59f
2:18 5 7 mph 1013.4mb 64f 59f
2:12 6 8 mph 1013.5mb 64f 59f
2:06 6 8 mph 1013.5mb 64f 59f
2:00 6 7 mph 1013.5mb 64f 59f
1:54 6 7 mph 1013.5mb 64f 59f
1:48 7 8 mph 1013.5mb 64f 59f
1:42 7 8 mph 1013.4mb 64f 59f
1:36 7 8 mph 1013.5mb 64f 59f
1:30 7 8 mph 1013.5mb 64f 59f
1:24 6 7 mph 1013.5mb 64f 59f
1:18 7 8 mph 1013.4mb 64f 59f
1:12 7 9 mph 1013.4mb 64f 59f
1:06 8 10 mph 1013.4mb 64f 59f
1:00 8 10 mph 1013.4mb 64f 59f
12:54 9 10 mph 1013.5mb 64f 59f
12:48 9 10 mph 1013.5mb 64f 59f
12:42 8 9 mph 1013.6mb 64f 58f
12:36 8 9 mph 1013.5mb 65f 58f
12:30 9 10 mph 1013.5mb 65f 59f
12:24 9 10 mph 1013.5mb 64f 59f
12:18 9 11 mph 1013.4mb 65f 59f
12:12 8 10 mph 1013.4mb 64f 59f
12:06 5 7 mph 1013.3mb 64f 59f
12:00 5 6 mph 1013.3mb 65f 59f
Mo 05/23 11:54 6 7 mph 1013.2mb 65f 59f
11:48 6 7 mph 1013.3mb 65f 59f
11:42 6 7 mph 1013.3mb 65f 59f
11:36 5 6 mph 1013.4mb 65f 59f
11:30 5
mph
1013.4mb 65f 59f
11:24 2 5 mph 1013.4mb 65f 59f
11:18 5
mph
1013.4mb 65f 59f
11:12 3
mph
1013.4mb 65f 59f
11:06 3 5 mph 1013.5mb 65f 59f
11:00 2 5 mph 1013.6mb 65f 59f
10:54 5 6 mph 1013.6mb 65f 59f
10:48 7 9 mph 1013.6mb 65f 59f
10:42  -  mph 1013.6mb 65f 59f
10:36  -  mph 1013.5mb 65f 59f
10:30 7
mph
1013.5mb 65f 59f
10:24 6 7 mph 1013.5mb 65f 59f
10:18 6
mph
1013.5mb 65f 59f
10:12 5 6 mph 1013.5mb 65f 59f
10:06 5 6 mph 1013.3mb 65f 60f
10:00 5 6 mph 1013.2mb 65f 59f
9:54 5 6 mph 1013.2mb 65f 59f
9:48 5 6 mph 1013.1mb 65f 60f
9:42 5 6 mph 1013mb 65f 59f
9:36 6 8 mph 1012.9mb 65f 59f
9:30 7 8 mph 1012.9mb 65f 59f
9:24 7 9 mph 1012.8mb 65f 59f
9:18 7 8 mph 1012.8mb 65f 59f
9:12 7
mph
1012.7mb 65f 60f
9:06 7 8 mph 1012.7mb 65f 60f
9:00 8
mph
1012.6mb 65f 60f
8:54 7 8 mph 1012.4mb 65f 60f
8:48 8
mph
1012.3mb 65f 60f
8:42 8 9 mph 1012.3mb 65f 60f
8:36 7 9 mph 1012.3mb 65f 60f
8:30 9
mph
1012.3mb 65f 60f
8:24 8 9 mph 1012.2mb 65f 60f
8:18 8 9 mph 1012.2mb 65f 60f
8:12  -  mph 1012.2mb 65f 60f
8:06  -  mph 1012.1mb 65f 60f
8:00  -  mph 1012.1mb 65f -
7:54  -  mph 1012mb 65f -
7:48  -  mph 1012mb 65f -
7:42  -  mph 1012mb 65f -
7:36  -  mph 1012mb 65f -
7:30 11 13 mph 1012mb 65f 60f
7:24 10 13 mph 1011.9mb 65f 61f
7:18 11 13 mph 1011.9mb 65f 61f
7:12 13 15 mph 1011.8mb 65f -
7:06 13 14 mph 1011.7mb 65f -
7:00 14 16 mph 1011.7mb 65f 60f
6:54 14
mph
1011.7mb 65f 61f
6:48 14 15 mph 1011.7mb 65f 61f
6:42 13 15 mph - 65f -
6:36 13 15 mph - 65f -
6:30  -  mph - 65f -
6:24  -  mph - 65f -
6:18  -  mph - 65f -
6:12  -  mph - 65f -
6:06  -  mph - 65f -
6:00  -  mph - 65f 61f
5:54  -  mph - 65f 60f
5:48  -  mph - 65f 61f
5:42 16 17 mph 1011.9mb - -
5:36 16 18 mph 1011.9mb - -
5:30  -  mph 1011.9mb 65f -
5:24  -  mph 1012mb 65f -
5:18  -  mph 1012mb 65f -
5:12 15 17 mph - 65f -
5:06 16 17 mph - 65f -
5:00 14 17 mph 1012.1mb 65f 61f
4:54 15 17 mph 1012.1mb 65f 60f
4:48 15 16 mph 1012.2mb 65f 61f
4:42  -  mph 1012.2mb - -
4:36  -  mph 1012.2mb - -
4:30  -  mph - 65f -
4:24  -  mph - 65f -
4:18  -  mph - 65f -
4:12  -  mph 1012.5mb 65f -
4:06  -  mph 1012.6mb 65f -
4:00  -  mph 1012.6mb 65f 62f
3:54  -  mph 1012.7mb 65f 62f
3:48  -  mph - 65f -
3:42  -  mph - 65f -
3:36  -  mph - 65f -
3:30 9 10 mph 1013mb 65f 62f
3:24 9 11 mph 1013mb 65f 62f
3:18 9 11 mph 1013.1mb 65f 62f
3:12  -  mph 1013.2mb 65f -
3:06  -  mph 1013.3mb 65f -
3:00  -  mph 1013.3mb 65f 61f
2:54  -  mph 1013.4mb 65f 61f
2:48  -  mph 1013.4mb 64f 61f
2:42  -  mph 1013.4mb - -
2:36  -  mph 1013.5mb - -
2:30 14 15 mph 1013.5mb 64f 61f
2:24 11 16 mph 1013.5mb 64f 61f
2:18 14 15 mph 1013.5mb 64f 61f
2:12 14 16 mph 1013.5mb 64f 61f
2:06 15 16 mph 1013.6mb 64f 61f
2:00 15 16 mph 1013.6mb 64f 61f
1:54 14 16 mph 1013.6mb 64f 61f
1:48 15 16 mph 1013.6mb 64f 61f
1:42 15 16 mph 1013.7mb 64f 61f
1:36 15 17 mph 1013.7mb 63f 61f
1:30 14 16 mph 1013.8mb 63f 61f
1:24 14 16 mph 1013.9mb 63f 61f
1:18 14 16 mph 1013.9mb 63f 61f
1:12 15 16 mph 1014mb 63f 61f
1:06 13 15 mph 1014mb 63f 62f
1:00 14 15 mph 1014mb 62f 61f
12:54 11 14 mph 1014.1mb 62f 62f
12:48 10 13 mph 1014.1mb 62f 62f
12:42 9 11 mph 1014.1mb 62f 62f
12:36 10 11 mph 1014.1mb 63f 62f
12:30 9 10 mph 1014.2mb 63f 62f
12:24 9 10 mph 1014.2mb 63f 62f
12:18 9 10 mph 1014.3mb 63f 62f
12:12 10 11 mph 1014.3mb 63f 62f
12:06 10 11 mph 1014.3mb 63f 62f
12:00 9 11 mph 1014.3mb 63f 62f
11:54 10 13 mph 1014.3mb 63f 62f
11:48 11 13 mph 1014.4mb 63f 62f
11:42 11 13 mph 1014.3mb 63f 62f
11:36 11 13 mph 1014.3mb 63f 62f
11:30 13 15 mph 1014.2mb 63f 61f
11:24 14 15 mph 1014.2mb 63f 61f
11:18 11 13 mph 1014.2mb 63f 62f
11:12 9 10 mph 1014.2mb 63f 62f
11:06 9
mph
1014.2mb 63f 62f
11:00 8 10 mph 1014.1mb 63f -
10:54 9 10 mph 1014.1mb 63f -
10:48  -  mph - - 62f
10:42  -  mph - - 62f
10:36  -  mph - - 62f
10:30 7
mph
1014mb 63f 62f
10:24 7 9 mph 1014mb 63f 62f
10:18 7 8 mph 1014mb 63f 62f
10:12 6 8 mph 1013.9mb 63f 62f
10:06 3 6 mph 1014mb 63f 63f
10:00 6 9 mph 1013.9mb 63f 64f
9:54 7 9 mph 1013.9mb 63f 64f
9:48 5 10 mph 1014mb 63f 64f
9:42 5 8 mph 1014mb 63f 64f
9:36 8 14 mph 1014mb 63f 63f
9:30 11 13 mph 1014mb 63f 62f
9:24 7 11 mph 1014mb 63f 63f
9:18 6 7 mph 1014.1mb 63f 63f
9:12 7 9 mph 1014.1mb 63f 63f
9:06 7 8 mph 1014.2mb 63f 62f
9:00 8 9 mph 1014.3mb 63f 63f
8:54 6
mph
1014.3mb 63f 63f
8:48 6 8 mph 1014.3mb 63f 63f
8:42 5 7 mph 1014.3mb 63f 62f
8:36 7 9 mph 1014.3mb 63f 61f
8:30 8 10 mph 1014.3mb 63f 61f
8:24 6 8 mph 1014.3mb 63f 61f
8:18 8 9 mph 1014.3mb 63f 61f
8:12 6 9 mph 1014.3mb 63f 60f
8:06 8 10 mph 1014.2mb 63f 60f
8:00 7 9 mph 1014.2mb 63f 60f
7:54 8 10 mph 1014.1mb 63f 60f
7:48 10 13 mph 1014.1mb 63f 60f
7:42 6 9 mph 1014.1mb 63f 60f
7:36 7 9 mph 1014mb 63f 60f
7:30 8 10 mph 1014mb 63f 60f
7:24 6 8 mph 1014mb 63f 60f
7:18 6 8 mph 1014mb 63f 60f
7:12 6 9 mph 1014mb 63f 60f
7:06 3 6 mph 1013.9mb 63f 59f
7:00 5 6 mph 1013.9mb 63f 58f
6:54 5 6 mph 1014mb 63f 58f
6:48 3 5 mph 1013.9mb 63f 58f
6:42 3 6 mph 1013.8mb 63f 57f
6:36 5 6 mph 1013.8mb 63f 57f
6:30 5 6 mph 1013.7mb 63f 57f
6:24 5 6 mph 1013.6mb 63f 57f
6:18 5 7 mph 1013.5mb 63f 56f
6:12 5 7 mph 1013.4mb 63f 56f
6:06 3 5 mph 1013.4mb 63f 56f
6:00 5 6 mph 1013.3mb 63f 57f
5:54 6
mph
1013.2mb 63f 57f
5:48 5 7 mph 1013.2mb 63f 57f
5:42 6 7 mph 1013.1mb 63f 57f
5:36 6 7 mph 1013.2mb 63f 57f
5:30 5 6 mph 1013.2mb 63f 57f
5:24 6 9 mph 1013.2mb 63f 57f
5:18 8 9 mph 1013.1mb 63f 57f
5:12 6 8 mph 1013.2mb 63f 57f
5:06 6 8 mph 1013.2mb 63f 57f
5:00 6 8 mph 1013.2mb 63f 57f
4:54 6 7 mph 1013.2mb 63f 57f
4:48 6 7 mph 1013.2mb 63f 57f
4:42 6 7 mph 1013.1mb 63f 57f
4:36 6 7 mph 1013.1mb 63f 57f
4:30  -  mph 1013.1mb 63f 57f
4:24  -  mph 1013.2mb 63f 57f
4:18  -  mph 1013.2mb 63f 57f
4:12 5 6 mph 1013.2mb 63f 57f
4:06 5 6 mph 1013.3mb 63f 57f
4:00 3 5 mph 1013.3mb 63f 57f
3:54 3
mph
1013.2mb 63f 57f
3:48 3 5 mph 1013.2mb 63f 58f
3:42 3 6 mph 1013.2mb 63f 57f
3:36 5 6 mph 1013.2mb 63f 57f
3:30 5 7 mph 1013.2mb 63f 58f
3:24 6 7 mph 1013.2mb 63f 58f
3:18 5 6 mph 1013.2mb 63f 57f
3:12 5 7 mph 1013.2mb 63f 58f
3:06 5 6 mph 1013.3mb 63f 57f
3:00 6 7 mph 1013.2mb 63f 58f
2:54 6 7 mph 1013.3mb 63f 58f
2:48 6 7 mph 1013.3mb 63f 58f
2:42 6 7 mph 1013.3mb 63f 58f
2:36 6 7 mph 1013.2mb 64f 58f
2:30 5 7 mph 1013.2mb 64f 58f
2:24 5 6 mph 1013.3mb 64f 58f
2:18 5 6 mph 1013.4mb 64f 58f
2:12 6 7 mph 1013.4mb 64f 58f
2:06 6 7 mph 1013.4mb 64f 58f
2:00 6 8 mph 1013.5mb 64f 58f
1:54 7 9 mph 1013.5mb 64f 58f
1:48 7 9 mph 1013.6mb 64f 58f
1:42 8 9 mph 1013.7mb 64f 58f
1:36 7 9 mph 1013.7mb 64f 58f
1:30 6 8 mph 1013.7mb 64f 58f
1:24 6 7 mph 1013.8mb 64f 59f
1:18 6 7 mph 1013.9mb 64f 59f
1:12 5 6 mph 1013.9mb 64f 59f
1:06 5 7 mph 1014mb 64f 59f
1:00 6
mph
1014.1mb 64f 59f
12:54 5 6 mph 1014.2mb 64f 59f
12:48 5 6 mph 1014.3mb 64f 59f
12:42 6 7 mph 1014.3mb 64f 59f
12:36 5 7 mph 1014.4mb 64f 59f
12:30 6 8 mph 1014.5mb 64f 59f
12:24 6 7 mph 1014.5mb 64f 59f
12:18 5 6 mph 1014.6mb 64f 59f
12:12 6
mph
1014.6mb 64f 59f
12:06 3 5 mph 1014.6mb 64f 60f
12:00 3 5 mph 1014.7mb 64f 60f
So 05/22 11:54 5
mph
1014.6mb 64f 60f
11:48 5
mph
1014.6mb 64f 59f
11:42 3
mph
1014.7mb 64f 60f
11:36 2 3 mph 1014.7mb 64f 59f
11:30 2 3 mph 1014.7mb 64f 60f
11:24 3
mph
1014.7mb 64f 60f
11:18 3
mph
1014.7mb 64f 60f
11:12 2 3 mph 1014.7mb 64f 60f
11:06 3 5 mph 1014.8mb 64f 60f
11:00 2 3 mph 1014.7mb 64f 60f
10:54 2 3 mph 1014.7mb 64f 60f
10:48 3 5 mph 1014.8mb 64f 60f
10:42  -  mph 1014.8mb 64f -
10:36  -  mph 1014.8mb 64f -
10:30 2 3 mph 1014.8mb 64f 60f
10:24 2
mph
1014.8mb 64f 60f
10:18  -  1 mph 1014.7mb 64f 60f
10:12 1 5 mph 1014.8mb 64f 60f
10:06 3 5 mph 1014.7mb 64f 61f
10:00 5 6 mph 1014.7mb 64f 61f
9:54 5 6 mph 1014.7mb 65f 61f
9:48 6 7 mph 1014.7mb 65f 61f
9:42 6 8 mph 1014.7mb 65f 61f
9:36 6 8 mph 1014.6mb 65f 60f
9:30 7 9 mph 1014.6mb 65f 60f
9:24 9 11 mph 1014.6mb 65f 60f
9:18 9 13 mph 1014.6mb 65f 60f
9:12 10 14 mph 1014.5mb 65f 60f
9:06 13 14 mph 1014.4mb 65f 60f
9:00 13 15 mph 1014.4mb 65f 60f
8:54 15 17 mph 1014.3mb 65f 60f
8:48 14 17 mph 1014.3mb 65f 60f
8:42 15 17 mph 1014.2mb 65f 60f
8:36 16 18 mph 1014.2mb 65f 60f
8:30 16 18 mph 1014.1mb 65f 60f
8:24 16 21 mph 1014.1mb 65f 60f
8:18 16 18 mph 1014.2mb 65f 60f
8:12  -  mph 1014.1mb 65f 60f
8:06  -  mph 1014.1mb 65f 60f
8:00  -  mph 1014.1mb 65f -
7:54  -  mph 1014.1mb 65f -
7:48  -  mph 1014.1mb 65f -
7:42 11 14 mph 1014.1mb 65f -
7:36 14 17 mph 1014.1mb 65f -
7:30 13 17 mph 1014.1mb 65f -
7:24 13 15 mph 1014.1mb 65f -
7:18 13 15 mph 1014.1mb 65f -
7:12  -  mph 1014.1mb 65f -
7:06  -  mph 1014.1mb 65f -
7:00 13 16 mph 1014mb 65f 61f
6:54 15 18 mph 1014.1mb 65f 61f
6:48 15 18 mph 1014mb 65f 61f
6:42 16 21 mph 1014mb - -
6:36 16 20 mph 1014mb - -
6:30 16 22 mph 1014mb 64f 62f
6:24 17 22 mph 1014mb 64f 61f
6:18 17 21 mph 1014mb 64f 62f
6:12  -  mph 1014mb 64f 62f
6:06  -  mph 1014mb 64f 62f
6:00 20 22 mph 1014.1mb 64f 62f
5:54 17 21 mph 1014.2mb 64f 61f
5:48 18 22 mph 1014.2mb 64f 61f
5:42 16 20 mph 1014.3mb 64f -
5:36 16 20 mph 1014.4mb 64f -
5:30  -  mph 1014.5mb 64f -
5:24  -  mph 1014.5mb 64f -
5:18  -  mph 1014.6mb 64f -
5:12 14 16 mph - 64f -
5:06 16 18 mph - 64f -
5:00  -  mph 1014.8mb 64f -
4:54  -  mph 1014.9mb 64f -
4:48  -  mph 1014.9mb 64f -
4:42  -  mph 1014.9mb 64f -
4:36  -  mph 1014.9mb 64f -
4:30  -  mph 1015mb 64f -
4:24  -  mph 1015.1mb 64f -
4:18  -  mph 1015.2mb 64f -
4:12  -  mph 1015.3mb 64f 60f
4:06  -  mph 1015.4mb 64f 60f
4:00  -  mph - 64f -
3:54  -  mph - 64f -
3:48 18 20 mph - 64f -
3:42 18 21 mph - 64f -
3:36 18 20 mph - 64f -
3:30  -  mph - 64f -
3:24  -  mph - 64f -
3:18  -  mph - 64f -
3:12 16 18 mph - 64f -
3:06 16 18 mph - 64f -
3:00  -  mph 1016.1mb 64f -
2:54  -  mph 1016.2mb 64f -
2:48  -  mph 1016.3mb 64f -
2:42  -  mph 1016.3mb 64f 59f
2:36  -  mph 1016.4mb 64f 59f
2:30 15 17 mph 1016.5mb 64f 60f
2:24 15 18 mph 1016.6mb 63f 60f
2:18 15 17 mph 1016.6mb 63f 59f
2:12 15 17 mph 1016.7mb 63f 59f
2:06 16 17 mph 1016.7mb 63f 59f
2:00 15 16 mph 1016.7mb 63f 59f
1:54 15 17 mph 1016.8mb 62f 59f
1:48 16 17 mph 1016.9mb 62f 59f
1:42 16 18 mph 1017mb 62f 59f
1:36 16 17 mph 1017mb 62f 60f
1:30 15 17 mph 1017mb 62f 61f
1:24 13 14 mph 1017mb 62f 61f
1:18 11 14 mph 1017.1mb 62f 61f
1:12 13 15 mph 1017.2mb 62f 60f
1:06 14
mph
1017.4mb 62f 61f
1:00 13 14 mph 1017.5mb 62f 60f
12:54 13 15 mph 1017.5mb 62f 60f
12:48 10 13 mph 1017.5mb 62f 61f
12:42 11 13 mph 1017.6mb 62f 61f
12:36 10 13 mph 1017.6mb 63f 60f
12:30 10 13 mph 1017.6mb 63f 61f
12:24 10 13 mph 1017.6mb 63f 60f
12:18 10 11 mph 1017.6mb 63f 60f
12:12 10 11 mph 1017.6mb 63f 60f
12:06 10 13 mph 1017.7mb 63f 60f
12:00 10 13 mph 1017.8mb 63f 61f
11:54 11 13 mph 1017.8mb 63f 60f
11:48 11 13 mph 1017.9mb 63f 60f
11:42 10 11 mph 1017.9mb 63f 61f
11:36 10 13 mph 1018mb 63f 60f
11:30 10 13 mph 1017.9mb 63f 61f
11:24 11 13 mph 1017.9mb 63f 61f
11:18 10 11 mph 1017.9mb 63f 61f
11:12 10 11 mph 1017.9mb 63f 61f
11:06 10 11 mph 1017.9mb 63f 61f
11:00 10 11 mph 1017.9mb 63f 60f
10:54 11 13 mph 1017.9mb 63f 60f
10:48 10 13 mph 1017.9mb 63f 60f
10:42 10 11 mph 1017.9mb 63f 60f
10:36 10 11 mph 1017.9mb 63f 60f
10:30 10 11 mph 1018mb 63f 60f
10:24 10 11 mph 1018mb 63f 60f
10:18 10
mph
1018mb 63f 60f
10:12 9 10 mph 1018.1mb 63f 60f
10:06 9 10 mph 1018.1mb 62f 60f
10:00 9
mph
1018.2mb 62f 60f
9:54 9
mph
1018.2mb 62f 60f
9:48 8 9 mph 1018.3mb 62f 60f
9:42 7 8 mph 1018.2mb 62f 60f
9:36 7
mph
1018.3mb 62f 60f
9:30 6 7 mph 1018.2mb 62f 60f
9:24 6
mph
1018.2mb 62f 60f
9:18 6
mph
1018.2mb 62f 60f
9:12 3 6 mph 1018.3mb 62f 60f
9:06 5 6 mph 1018.3mb 62f 60f
9:00 5
mph
1018.3mb 62f 60f
8:54 5 6 mph 1018.3mb 62f 60f
8:48 6
mph
1018.2mb 62f 60f
8:42 3
mph
1018.2mb 62f 60f
8:36 2 3 mph 1018.2mb 62f 60f
8:30 3 6 mph 1018.3mb 62f 61f
8:24 1 5 mph 1018.2mb 62f 62f
8:18 5 6 mph 1018.2mb 62f 62f
8:12 3 5 mph 1018.2mb 62f 62f
8:06  -  6 mph 1018.1mb 62f 62f
8:00 6 7 mph 1018.2mb 62f 60f
7:54 3 8 mph 1018.1mb 63f 60f
7:48 5 8 mph 1018.1mb 63f 60f
7:42 6 8 mph 1018.1mb 63f 60f
7:36 6 7 mph 1018mb 63f 60f
7:30 6 7 mph 1018mb 63f 60f
7:24 5 8 mph 1017.9mb 63f 59f
7:18 6 9 mph 1018mb 63f 59f
7:12 6 8 mph 1018mb 63f 59f
7:06 6 8 mph 1017.9mb 63f 58f
7:00 6 8 mph 1017.8mb 63f 58f
6:54 6 8 mph 1017.8mb 63f 58f
6:48 7 8 mph 1017.8mb 62f 58f
6:42 7 8 mph 1017.7mb 62f 57f
6:36 6 8 mph 1017.7mb 62f 57f
6:30 6 7 mph 1017.6mb 62f 57f
6:24 6 10 mph 1017.6mb 62f 57f
6:18 6 9 mph 1017.6mb 62f 57f
6:12 7 9 mph 1017.6mb 63f 57f
6:06 6 8 mph 1017.5mb 63f 57f
6:00 7 9 mph 1017.4mb 63f 57f
5:54 7 9 mph 1017.5mb 63f 56f
5:48 6 9 mph 1017.5mb 63f 57f
5:42 7 9 mph 1017.5mb 63f 57f
5:36 6 9 mph 1017.5mb 63f 57f
5:30 6 9 mph 1017.4mb 63f 57f
5:24 6 8 mph 1017.3mb 63f 57f
5:18 6 9 mph 1017.3mb 63f 57f
5:12 6 9 mph 1017.3mb 63f 57f
5:06 7 8 mph 1017.2mb 63f 57f
5:00 6 7 mph 1017.1mb 63f 57f